sensor_id;sensor_type;location;lat;lon;timestamp;P1;durP1;ratioP1;P2;durP2;ratioP2
73382;SDS011;61600;48.126;11.542;2023-05-07T00:00:41;23.75;;;9.88;;
73382;SDS011;61600;48.126;11.542;2023-05-07T00:03:08;18.83;;;7.70;;
73382;SDS011;61600;48.126;11.542;2023-05-07T00:05:33;16.33;;;7.70;;
73382;SDS011;61600;48.126;11.542;2023-05-07T00:07:59;14.85;;;7.07;;
73382;SDS011;61600;48.126;11.542;2023-05-07T00:10:25;15.07;;;7.07;;
73382;SDS011;61600;48.126;11.542;2023-05-07T00:12:51;23.90;;;10.75;;
73382;SDS011;61600;48.126;11.542;2023-05-07T00:15:17;15.07;;;7.10;;
73382;SDS011;61600;48.126;11.542;2023-05-07T00:17:43;11.10;;;6.50;;
73382;SDS011;61600;48.126;11.542;2023-05-07T00:20:08;9.93;;;5.72;;
73382;SDS011;61600;48.126;11.542;2023-05-07T00:22:35;11.23;;;5.50;;
73382;SDS011;61600;48.126;11.542;2023-05-07T00:25:01;8.70;;;4.63;;
73382;SDS011;61600;48.126;11.542;2023-05-07T00:27:27;10.60;;;5.22;;
73382;SDS011;61600;48.126;11.542;2023-05-07T00:29:53;7.88;;;5.35;;
73382;SDS011;61600;48.126;11.542;2023-05-07T00:32:19;10.52;;;5.72;;
73382;SDS011;61600;48.126;11.542;2023-05-07T00:34:44;7.82;;;5.05;;
73382;SDS011;61600;48.126;11.542;2023-05-07T00:37:10;8.10;;;5.53;;
73382;SDS011;61600;48.126;11.542;2023-05-07T00:39:37;9.13;;;5.45;;
73382;SDS011;61600;48.126;11.542;2023-05-07T00:42:03;8.93;;;5.60;;
73382;SDS011;61600;48.126;11.542;2023-05-07T00:44:29;7.70;;;5.45;;
73382;SDS011;61600;48.126;11.542;2023-05-07T00:46:58;8.65;;;5.28;;
73382;SDS011;61600;48.126;11.542;2023-05-07T00:49:32;7.68;;;5.53;;
73382;SDS011;61600;48.126;11.542;2023-05-07T00:52:03;8.18;;;4.88;;
73382;SDS011;61600;48.126;11.542;2023-05-07T00:54:30;8.73;;;5.07;;
73382;SDS011;61600;48.126;11.542;2023-05-07T00:56:56;7.57;;;5.03;;
73382;SDS011;61600;48.126;11.542;2023-05-07T00:59:22;8.75;;;5.20;;
73382;SDS011;61600;48.126;11.542;2023-05-07T01:01:48;9.95;;;4.97;;
73382;SDS011;61600;48.126;11.542;2023-05-07T01:04:14;9.68;;;5.15;;
73382;SDS011;61600;48.126;11.542;2023-05-07T01:06:39;9.15;;;5.00;;
73382;SDS011;61600;48.126;11.542;2023-05-07T01:09:06;7.53;;;5.72;;
73382;SDS011;61600;48.126;11.542;2023-05-07T01:11:32;8.70;;;5.13;;
73382;SDS011;61600;48.126;11.542;2023-05-07T01:13:58;11.10;;;5.30;;
73382;SDS011;61600;48.126;11.542;2023-05-07T01:16:25;8.20;;;5.10;;
73382;SDS011;61600;48.126;11.542;2023-05-07T01:18:50;7.95;;;4.82;;
73382;SDS011;61600;48.126;11.542;2023-05-07T01:21:16;7.38;;;4.82;;
73382;SDS011;61600;48.126;11.542;2023-05-07T01:23:44;7.90;;;5.32;;
73382;SDS011;61600;48.126;11.542;2023-05-07T01:26:10;7.38;;;4.78;;
73382;SDS011;61600;48.126;11.542;2023-05-07T01:28:36;10.07;;;5.13;;
73382;SDS011;61600;48.126;11.542;2023-05-07T01:31:02;10.48;;;5.07;;
73382;SDS011;61600;48.126;11.542;2023-05-07T01:33:31;9.02;;;5.20;;
73382;SDS011;61600;48.126;11.542;2023-05-07T01:35:59;7.55;;;5.20;;
73382;SDS011;61600;48.126;11.542;2023-05-07T01:38:27;7.13;;;4.88;;
73382;SDS011;61600;48.126;11.542;2023-05-07T01:40:54;7.72;;;5.28;;
73382;SDS011;61600;48.126;11.542;2023-05-07T01:43:20;8.48;;;4.90;;
73382;SDS011;61600;48.126;11.542;2023-05-07T01:45:46;8.77;;;4.68;;
73382;SDS011;61600;48.126;11.542;2023-05-07T01:48:14;8.00;;;5.20;;
73382;SDS011;61600;48.126;11.542;2023-05-07T01:50:47;7.95;;;4.55;;
73382;SDS011;61600;48.126;11.542;2023-05-07T01:53:13;7.95;;;5.25;;
73382;SDS011;61600;48.126;11.542;2023-05-07T01:55:39;7.68;;;4.72;;
73382;SDS011;61600;48.126;11.542;2023-05-07T01:58:05;7.82;;;5.40;;
73382;SDS011;61600;48.126;11.542;2023-05-07T02:00:31;9.32;;;4.97;;
73382;SDS011;61600;48.126;11.542;2023-05-07T02:02:57;9.00;;;5.28;;
73382;SDS011;61600;48.126;11.542;2023-05-07T02:05:23;6.70;;;4.30;;
73382;SDS011;61600;48.126;11.542;2023-05-07T02:07:48;13.55;;;6.20;;
73382;SDS011;61600;48.126;11.542;2023-05-07T02:10:14;16.17;;;6.95;;
73382;SDS011;61600;48.126;11.542;2023-05-07T02:12:40;16.25;;;6.35;;
73382;SDS011;61600;48.126;11.542;2023-05-07T02:15:06;13.02;;;6.30;;
73382;SDS011;61600;48.126;11.542;2023-05-07T02:17:32;15.35;;;7.22;;
73382;SDS011;61600;48.126;11.542;2023-05-07T02:19:58;19.88;;;7.88;;
73382;SDS011;61600;48.126;11.542;2023-05-07T02:22:25;11.80;;;6.65;;
73382;SDS011;61600;48.126;11.542;2023-05-07T02:24:51;9.15;;;5.22;;
73382;SDS011;61600;48.126;11.542;2023-05-07T02:27:16;10.60;;;4.70;;
73382;SDS011;61600;48.126;11.542;2023-05-07T02:29:46;9.20;;;5.18;;
73382;SDS011;61600;48.126;11.542;2023-05-07T02:32:12;7.43;;;4.40;;
73382;SDS011;61600;48.126;11.542;2023-05-07T02:34:38;7.45;;;5.07;;
73382;SDS011;61600;48.126;11.542;2023-05-07T02:37:04;7.28;;;4.85;;
73382;SDS011;61600;48.126;11.542;2023-05-07T02:39:30;8.57;;;4.60;;
73382;SDS011;61600;48.126;11.542;2023-05-07T02:41:55;8.13;;;4.40;;
73382;SDS011;61600;48.126;11.542;2023-05-07T02:44:21;6.68;;;4.47;;
73382;SDS011;61600;48.126;11.542;2023-05-07T02:46:47;6.90;;;4.75;;
73382;SDS011;61600;48.126;11.542;2023-05-07T02:49:13;6.60;;;4.07;;
73382;SDS011;61600;48.126;11.542;2023-05-07T02:51:39;5.97;;;4.43;;
73382;SDS011;61600;48.126;11.542;2023-05-07T02:54:05;7.38;;;4.50;;
73382;SDS011;61600;48.126;11.542;2023-05-07T02:56:30;6.28;;;4.50;;
73382;SDS011;61600;48.126;11.542;2023-05-07T02:58:56;5.95;;;4.35;;
73382;SDS011;61600;48.126;11.542;2023-05-07T03:01:22;8.50;;;4.53;;
73382;SDS011;61600;48.126;11.542;2023-05-07T03:03:48;5.53;;;4.55;;
73382;SDS011;61600;48.126;11.542;2023-05-07T03:06:13;5.50;;;4.10;;
73382;SDS011;61600;48.126;11.542;2023-05-07T03:08:39;6.50;;;3.90;;
73382;SDS011;61600;48.126;11.542;2023-05-07T03:11:05;6.95;;;3.97;;
73382;SDS011;61600;48.126;11.542;2023-05-07T03:13:30;6.80;;;4.13;;
73382;SDS011;61600;48.126;11.542;2023-05-07T03:15:56;4.82;;;3.33;;
73382;SDS011;61600;48.126;11.542;2023-05-07T03:18:22;6.07;;;4.03;;
73382;SDS011;61600;48.126;11.542;2023-05-07T03:20:48;5.00;;;3.63;;
73382;SDS011;61600;48.126;11.542;2023-05-07T03:23:13;7.75;;;4.30;;
73382;SDS011;61600;48.126;11.542;2023-05-07T03:25:39;5.97;;;4.28;;
73382;SDS011;61600;48.126;11.542;2023-05-07T03:28:05;6.22;;;4.05;;
73382;SDS011;61600;48.126;11.542;2023-05-07T03:30:31;8.20;;;4.45;;
73382;SDS011;61600;48.126;11.542;2023-05-07T03:32:56;6.55;;;3.97;;
73382;SDS011;61600;48.126;11.542;2023-05-07T03:35:23;6.07;;;4.25;;
73382;SDS011;61600;48.126;11.542;2023-05-07T03:37:49;7.72;;;4.20;;
73382;SDS011;61600;48.126;11.542;2023-05-07T03:40:16;6.10;;;4.00;;
73382;SDS011;61600;48.126;11.542;2023-05-07T03:42:41;6.60;;;3.60;;
73382;SDS011;61600;48.126;11.542;2023-05-07T03:45:07;8.13;;;4.00;;
73382;SDS011;61600;48.126;11.542;2023-05-07T03:47:33;7.05;;;4.07;;
73382;SDS011;61600;48.126;11.542;2023-05-07T03:49:59;6.97;;;3.83;;
73382;SDS011;61600;48.126;11.542;2023-05-07T03:52:25;5.72;;;3.97;;
73382;SDS011;61600;48.126;11.542;2023-05-07T03:54:52;6.53;;;3.85;;
73382;SDS011;61600;48.126;11.542;2023-05-07T03:57:18;8.75;;;3.70;;
73382;SDS011;61600;48.126;11.542;2023-05-07T03:59:44;7.90;;;4.05;;
73382;SDS011;61600;48.126;11.542;2023-05-07T04:02:10;8.05;;;3.75;;
73382;SDS011;61600;48.126;11.542;2023-05-07T04:04:35;5.47;;;3.63;;
73382;SDS011;61600;48.126;11.542;2023-05-07T04:07:01;6.22;;;3.95;;
73382;SDS011;61600;48.126;11.542;2023-05-07T04:09:27;9.32;;;3.90;;
73382;SDS011;61600;48.126;11.542;2023-05-07T04:11:52;7.80;;;3.90;;
73382;SDS011;61600;48.126;11.542;2023-05-07T04:14:18;4.90;;;3.50;;
73382;SDS011;61600;48.126;11.542;2023-05-07T04:16:44;8.38;;;4.13;;
73382;SDS011;61600;48.126;11.542;2023-05-07T04:19:10;10.55;;;4.68;;
73382;SDS011;61600;48.126;11.542;2023-05-07T04:21:36;7.07;;;4.55;;
73382;SDS011;61600;48.126;11.542;2023-05-07T04:24:02;8.98;;;3.97;;
73382;SDS011;61600;48.126;11.542;2023-05-07T04:26:29;6.82;;;3.92;;
73382;SDS011;61600;48.126;11.542;2023-05-07T04:28:54;6.50;;;4.50;;
73382;SDS011;61600;48.126;11.542;2023-05-07T04:31:20;9.30;;;3.72;;
73382;SDS011;61600;48.126;11.542;2023-05-07T04:33:46;6.38;;;3.38;;
73382;SDS011;61600;48.126;11.542;2023-05-07T04:36:12;5.60;;;3.60;;
73382;SDS011;61600;48.126;11.542;2023-05-07T04:38:37;5.50;;;3.70;;
73382;SDS011;61600;48.126;11.542;2023-05-07T04:41:04;6.15;;;3.70;;
73382;SDS011;61600;48.126;11.542;2023-05-07T04:43:31;6.80;;;3.58;;
73382;SDS011;61600;48.126;11.542;2023-05-07T04:45:57;6.40;;;3.58;;
73382;SDS011;61600;48.126;11.542;2023-05-07T04:48:23;4.95;;;3.58;;
73382;SDS011;61600;48.126;11.542;2023-05-07T04:50:52;6.30;;;3.53;;
73382;SDS011;61600;48.126;11.542;2023-05-07T04:53:18;4.90;;;3.78;;
73382;SDS011;61600;48.126;11.542;2023-05-07T04:55:44;4.72;;;3.30;;
73382;SDS011;61600;48.126;11.542;2023-05-07T04:58:10;6.63;;;3.83;;
73382;SDS011;61600;48.126;11.542;2023-05-07T05:00:37;4.85;;;3.40;;
73382;SDS011;61600;48.126;11.542;2023-05-07T05:03:05;4.90;;;3.88;;
73382;SDS011;61600;48.126;11.542;2023-05-07T05:05:34;5.55;;;4.05;;
73382;SDS011;61600;48.126;11.542;2023-05-07T05:08:00;5.40;;;3.95;;
73382;SDS011;61600;48.126;11.542;2023-05-07T05:10:25;5.03;;;3.80;;
73382;SDS011;61600;48.126;11.542;2023-05-07T05:12:51;5.90;;;3.90;;
73382;SDS011;61600;48.126;11.542;2023-05-07T05:15:17;6.93;;;3.75;;
73382;SDS011;61600;48.126;11.542;2023-05-07T05:17:42;6.20;;;3.92;;
73382;SDS011;61600;48.126;11.542;2023-05-07T05:20:08;4.82;;;3.58;;
73382;SDS011;61600;48.126;11.542;2023-05-07T05:22:36;5.15;;;3.53;;
73382;SDS011;61600;48.126;11.542;2023-05-07T05:25:01;4.97;;;3.70;;
73382;SDS011;61600;48.126;11.542;2023-05-07T05:27:28;10.75;;;4.22;;
73382;SDS011;61600;48.126;11.542;2023-05-07T05:29:54;7.82;;;4.00;;
73382;SDS011;61600;48.126;11.542;2023-05-07T05:32:20;5.40;;;3.80;;
73382;SDS011;61600;48.126;11.542;2023-05-07T05:34:45;5.80;;;3.45;;
73382;SDS011;61600;48.126;11.542;2023-05-07T05:37:11;8.02;;;3.95;;
73382;SDS011;61600;48.126;11.542;2023-05-07T05:39:37;5.25;;;3.30;;
73382;SDS011;61600;48.126;11.542;2023-05-07T05:42:02;6.20;;;3.53;;
73382;SDS011;61600;48.126;11.542;2023-05-07T05:44:28;6.50;;;3.50;;
73382;SDS011;61600;48.126;11.542;2023-05-07T05:46:54;6.50;;;3.80;;
73382;SDS011;61600;48.126;11.542;2023-05-07T05:49:22;6.10;;;4.05;;
73382;SDS011;61600;48.126;11.542;2023-05-07T05:51:48;6.75;;;3.75;;
73382;SDS011;61600;48.126;11.542;2023-05-07T05:54:14;6.15;;;3.47;;
73382;SDS011;61600;48.126;11.542;2023-05-07T05:56:41;5.70;;;3.42;;
73382;SDS011;61600;48.126;11.542;2023-05-07T05:59:07;5.35;;;3.30;;
73382;SDS011;61600;48.126;11.542;2023-05-07T06:01:33;5.78;;;3.30;;
73382;SDS011;61600;48.126;11.542;2023-05-07T06:03:59;4.30;;;3.28;;
73382;SDS011;61600;48.126;11.542;2023-05-07T06:06:25;4.82;;;3.03;;
73382;SDS011;61600;48.126;11.542;2023-05-07T06:08:51;4.90;;;3.08;;
73382;SDS011;61600;48.126;11.542;2023-05-07T06:11:17;6.57;;;3.30;;
73382;SDS011;61600;48.126;11.542;2023-05-07T06:13:43;5.35;;;3.67;;
73382;SDS011;61600;48.126;11.542;2023-05-07T06:16:08;4.65;;;3.20;;
73382;SDS011;61600;48.126;11.542;2023-05-07T06:18:34;4.85;;;3.20;;
73382;SDS011;61600;48.126;11.542;2023-05-07T06:21:01;6.10;;;3.88;;
73382;SDS011;61600;48.126;11.542;2023-05-07T06:23:27;5.65;;;3.70;;
73382;SDS011;61600;48.126;11.542;2023-05-07T06:25:53;4.75;;;3.42;;
73382;SDS011;61600;48.126;11.542;2023-05-07T06:28:19;5.10;;;3.33;;
73382;SDS011;61600;48.126;11.542;2023-05-07T06:30:45;5.93;;;3.67;;
73382;SDS011;61600;48.126;11.542;2023-05-07T06:33:10;7.95;;;4.22;;
73382;SDS011;61600;48.126;11.542;2023-05-07T06:35:36;6.10;;;3.42;;
73382;SDS011;61600;48.126;11.542;2023-05-07T06:38:02;4.57;;;3.10;;
73382;SDS011;61600;48.126;11.542;2023-05-07T06:40:27;7.50;;;4.05;;
73382;SDS011;61600;48.126;11.542;2023-05-07T06:42:53;4.10;;;2.75;;
73382;SDS011;61600;48.126;11.542;2023-05-07T06:45:19;4.40;;;2.63;;
73382;SDS011;61600;48.126;11.542;2023-05-07T06:47:45;13.35;;;7.97;;
73382;SDS011;61600;48.126;11.542;2023-05-07T06:50:11;4.75;;;2.95;;
73382;SDS011;61600;48.126;11.542;2023-05-07T06:52:37;4.30;;;2.88;;
73382;SDS011;61600;48.126;11.542;2023-05-07T06:55:03;5.20;;;2.70;;
73382;SDS011;61600;48.126;11.542;2023-05-07T06:57:29;3.95;;;2.67;;
73382;SDS011;61600;48.126;11.542;2023-05-07T06:59:59;4.20;;;3.00;;
73382;SDS011;61600;48.126;11.542;2023-05-07T07:02:25;6.40;;;3.00;;
73382;SDS011;61600;48.126;11.542;2023-05-07T07:04:51;4.45;;;3.08;;
73382;SDS011;61600;48.126;11.542;2023-05-07T07:07:16;4.60;;;2.80;;
73382;SDS011;61600;48.126;11.542;2023-05-07T07:09:42;3.75;;;2.75;;
73382;SDS011;61600;48.126;11.542;2023-05-07T07:12:08;5.97;;;3.35;;
73382;SDS011;61600;48.126;11.542;2023-05-07T07:14:34;6.10;;;2.97;;
73382;SDS011;61600;48.126;11.542;2023-05-07T07:17:00;6.03;;;2.95;;
73382;SDS011;61600;48.126;11.542;2023-05-07T07:19:26;5.00;;;2.90;;
73382;SDS011;61600;48.126;11.542;2023-05-07T07:21:51;6.22;;;2.88;;
73382;SDS011;61600;48.126;11.542;2023-05-07T07:24:17;5.35;;;2.80;;
73382;SDS011;61600;48.126;11.542;2023-05-07T07:26:46;4.43;;;2.75;;
73382;SDS011;61600;48.126;11.542;2023-05-07T07:29:12;4.70;;;2.80;;
73382;SDS011;61600;48.126;11.542;2023-05-07T07:31:38;4.35;;;2.70;;
73382;SDS011;61600;48.126;11.542;2023-05-07T07:34:04;5.22;;;2.92;;
73382;SDS011;61600;48.126;11.542;2023-05-07T07:36:30;3.83;;;2.78;;
73382;SDS011;61600;48.126;11.542;2023-05-07T07:38:56;4.32;;;2.53;;
73382;SDS011;61600;48.126;11.542;2023-05-07T07:41:21;4.50;;;2.33;;
73382;SDS011;61600;48.126;11.542;2023-05-07T07:43:47;3.70;;;2.50;;
73382;SDS011;61600;48.126;11.542;2023-05-07T07:46:13;4.22;;;2.97;;
73382;SDS011;61600;48.126;11.542;2023-05-07T07:48:39;6.43;;;4.22;;
73382;SDS011;61600;48.126;11.542;2023-05-07T07:51:05;4.82;;;2.90;;
73382;SDS011;61600;48.126;11.542;2023-05-07T07:53:31;9.23;;;4.85;;
73382;SDS011;61600;48.126;11.542;2023-05-07T07:55:57;6.05;;;2.38;;
73382;SDS011;61600;48.126;11.542;2023-05-07T07:58:23;4.63;;;2.45;;
73382;SDS011;61600;48.126;11.542;2023-05-07T08:00:50;5.15;;;2.65;;
73382;SDS011;61600;48.126;11.542;2023-05-07T08:03:16;6.32;;;2.70;;
73382;SDS011;61600;48.126;11.542;2023-05-07T08:05:42;6.63;;;2.75;;
73382;SDS011;61600;48.126;11.542;2023-05-07T08:08:08;5.05;;;2.33;;
73382;SDS011;61600;48.126;11.542;2023-05-07T08:10:34;4.32;;;2.33;;
73382;SDS011;61600;48.126;11.542;2023-05-07T08:13:03;4.13;;;2.80;;
73382;SDS011;61600;48.126;11.542;2023-05-07T08:17:55;5.70;;;2.83;;
73382;SDS011;61600;48.126;11.542;2023-05-07T08:20:23;3.78;;;2.53;;
73382;SDS011;61600;48.126;11.542;2023-05-07T08:22:49;5.95;;;2.40;;
73382;SDS011;61600;48.126;11.542;2023-05-07T08:25:15;4.15;;;2.50;;
73382;SDS011;61600;48.126;11.542;2023-05-07T08:27:41;5.03;;;2.72;;
73382;SDS011;61600;48.126;11.542;2023-05-07T08:30:07;6.90;;;4.60;;
73382;SDS011;61600;48.126;11.542;2023-05-07T08:32:33;3.80;;;2.40;;
73382;SDS011;61600;48.126;11.542;2023-05-07T08:34:58;4.25;;;2.60;;
73382;SDS011;61600;48.126;11.542;2023-05-07T08:37:25;4.35;;;2.70;;
73382;SDS011;61600;48.126;11.542;2023-05-07T08:39:50;4.38;;;2.60;;
73382;SDS011;61600;48.126;11.542;2023-05-07T08:42:16;3.70;;;2.80;;
73382;SDS011;61600;48.126;11.542;2023-05-07T08:44:44;3.95;;;2.60;;
73382;SDS011;61600;48.126;11.542;2023-05-07T08:47:13;3.15;;;2.13;;
73382;SDS011;61600;48.126;11.542;2023-05-07T08:49:39;5.80;;;2.60;;
73382;SDS011;61600;48.126;11.542;2023-05-07T08:52:06;4.47;;;1.88;;
73382;SDS011;61600;48.126;11.542;2023-05-07T08:54:32;4.85;;;2.38;;
73382;SDS011;61600;48.126;11.542;2023-05-07T08:56:59;4.50;;;2.40;;
73382;SDS011;61600;48.126;11.542;2023-05-07T08:59:25;4.68;;;2.03;;
73382;SDS011;61600;48.126;11.542;2023-05-07T09:01:51;3.25;;;2.10;;
73382;SDS011;61600;48.126;11.542;2023-05-07T09:04:17;2.80;;;1.80;;
73382;SDS011;61600;48.126;11.542;2023-05-07T09:06:42;6.07;;;3.97;;
73382;SDS011;61600;48.126;11.542;2023-05-07T09:09:08;5.22;;;2.22;;
73382;SDS011;61600;48.126;11.542;2023-05-07T09:11:34;6.25;;;2.53;;
73382;SDS011;61600;48.126;11.542;2023-05-07T09:14:00;4.80;;;2.25;;
73382;SDS011;61600;48.126;11.542;2023-05-07T09:16:28;4.57;;;2.60;;
73382;SDS011;61600;48.126;11.542;2023-05-07T09:18:57;4.15;;;2.15;;
73382;SDS011;61600;48.126;11.542;2023-05-07T09:21:25;4.32;;;2.08;;
73382;SDS011;61600;48.126;11.542;2023-05-07T09:23:51;3.97;;;2.15;;
73382;SDS011;61600;48.126;11.542;2023-05-07T09:26:18;4.25;;;2.88;;
73382;SDS011;61600;48.126;11.542;2023-05-07T09:28:46;4.25;;;2.42;;
73382;SDS011;61600;48.126;11.542;2023-05-07T09:31:12;10.20;;;5.57;;
73382;SDS011;61600;48.126;11.542;2023-05-07T09:33:38;3.65;;;1.90;;
73382;SDS011;61600;48.126;11.542;2023-05-07T09:36:07;3.28;;;1.92;;
73382;SDS011;61600;48.126;11.542;2023-05-07T09:38:35;2.75;;;1.80;;
73382;SDS011;61600;48.126;11.542;2023-05-07T09:41:06;2.65;;;1.67;;
73382;SDS011;61600;48.126;11.542;2023-05-07T09:43:37;4.50;;;3.15;;
73382;SDS011;61600;48.126;11.542;2023-05-07T09:46:13;2.45;;;1.35;;
73382;SDS011;61600;48.126;11.542;2023-05-07T09:48:41;2.78;;;1.60;;
73382;SDS011;61600;48.126;11.542;2023-05-07T09:51:17;3.25;;;1.60;;
73382;SDS011;61600;48.126;11.542;2023-05-07T09:53:48;4.68;;;1.85;;
73382;SDS011;61600;48.126;11.542;2023-05-07T09:56:14;3.58;;;1.70;;
73382;SDS011;61600;48.126;11.542;2023-05-07T09:58:41;3.85;;;1.80;;
73382;SDS011;61600;48.126;11.542;2023-05-07T10:01:08;3.17;;;1.58;;
73382;SDS011;61600;48.126;11.542;2023-05-07T10:03:36;3.63;;;1.95;;
73382;SDS011;61600;48.126;11.542;2023-05-07T10:06:05;2.92;;;2.00;;
73382;SDS011;61600;48.126;11.542;2023-05-07T10:08:31;3.45;;;2.05;;
73382;SDS011;61600;48.126;11.542;2023-05-07T10:10:57;5.15;;;2.15;;
73382;SDS011;61600;48.126;11.542;2023-05-07T10:13:25;2.65;;;1.45;;
73382;SDS011;61600;48.126;11.542;2023-05-07T10:15:52;3.28;;;1.70;;
73382;SDS011;61600;48.126;11.542;2023-05-07T10:18:19;3.38;;;1.75;;
73382;SDS011;61600;48.126;11.542;2023-05-07T10:20:54;3.78;;;2.13;;
73382;SDS011;61600;48.126;11.542;2023-05-07T10:23:36;3.72;;;2.40;;
73382;SDS011;61600;48.126;11.542;2023-05-07T10:26:04;4.80;;;2.45;;
73382;SDS011;61600;48.126;11.542;2023-05-07T10:28:33;4.30;;;2.10;;
73382;SDS011;61600;48.126;11.542;2023-05-07T10:33:43;7.65;;;4.15;;
73382;SDS011;61600;48.126;11.542;2023-05-07T10:36:11;3.17;;;1.90;;
73382;SDS011;61600;48.126;11.542;2023-05-07T10:38:38;5.68;;;2.00;;
73382;SDS011;61600;48.126;11.542;2023-05-07T10:41:06;6.60;;;2.13;;
73382;SDS011;61600;48.126;11.542;2023-05-07T10:43:41;2.95;;;1.92;;
73382;SDS011;61600;48.126;11.542;2023-05-07T10:46:09;4.70;;;1.80;;
73382;SDS011;61600;48.126;11.542;2023-05-07T10:51:30;3.00;;;1.58;;
73382;SDS011;61600;48.126;11.542;2023-05-07T10:56:42;5.55;;;3.55;;
73382;SDS011;61600;48.126;11.542;2023-05-07T11:01:53;4.28;;;2.25;;
73382;SDS011;61600;48.126;11.542;2023-05-07T11:04:21;4.65;;;2.10;;
73382;SDS011;61600;48.126;11.542;2023-05-07T11:15:08;5.93;;;2.00;;
73382;SDS011;61600;48.126;11.542;2023-05-07T11:17:54;4.45;;;2.00;;
73382;SDS011;61600;48.126;11.542;2023-05-07T11:20:20;3.72;;;2.05;;
73382;SDS011;61600;48.126;11.542;2023-05-07T11:23:17;2.83;;;1.70;;
73382;SDS011;61600;48.126;11.542;2023-05-07T11:26:07;10.77;;;7.10;;
73382;SDS011;61600;48.126;11.542;2023-05-07T11:28:37;3.22;;;1.80;;
73382;SDS011;61600;48.126;11.542;2023-05-07T11:31:04;2.65;;;1.63;;
73382;SDS011;61600;48.126;11.542;2023-05-07T11:33:40;2.60;;;1.75;;
73382;SDS011;61600;48.126;11.542;2023-05-07T11:36:07;3.90;;;2.03;;
73382;SDS011;61600;48.126;11.542;2023-05-07T11:38:37;4.75;;;2.15;;
73382;SDS011;61600;48.126;11.542;2023-05-07T11:41:04;3.22;;;2.08;;
73382;SDS011;61600;48.126;11.542;2023-05-07T11:43:36;4.03;;;2.28;;
73382;SDS011;61600;48.126;11.542;2023-05-07T11:46:09;4.13;;;2.13;;
73382;SDS011;61600;48.126;11.542;2023-05-07T11:48:36;4.20;;;2.22;;
73382;SDS011;61600;48.126;11.542;2023-05-07T11:51:02;3.03;;;2.05;;
73382;SDS011;61600;48.126;11.542;2023-05-07T11:53:37;5.57;;;2.20;;
73382;SDS011;61600;48.126;11.542;2023-05-07T11:56:08;3.47;;;2.25;;
73382;SDS011;61600;48.126;11.542;2023-05-07T11:58:36;3.47;;;2.20;;
73382;SDS011;61600;48.126;11.542;2023-05-07T12:01:02;3.78;;;1.85;;
73382;SDS011;61600;48.126;11.542;2023-05-07T12:03:28;3.92;;;2.35;;
73382;SDS011;61600;48.126;11.542;2023-05-07T12:05:54;3.40;;;2.40;;
73382;SDS011;61600;48.126;11.542;2023-05-07T12:10:48;5.30;;;2.40;;
73382;SDS011;61600;48.126;11.542;2023-05-07T12:13:15;4.78;;;2.53;;
73382;SDS011;61600;48.126;11.542;2023-05-07T12:15:42;3.97;;;2.17;;
73382;SDS011;61600;48.126;11.542;2023-05-07T12:18:10;4.85;;;2.30;;
73382;SDS011;61600;48.126;11.542;2023-05-07T12:20:37;7.03;;;2.10;;
73382;SDS011;61600;48.126;11.542;2023-05-07T12:23:03;3.70;;;2.20;;
73382;SDS011;61600;48.126;11.542;2023-05-07T12:27:56;3.33;;;2.15;;
73382;SDS011;61600;48.126;11.542;2023-05-07T12:30:24;3.28;;;2.00;;
73382;SDS011;61600;48.126;11.542;2023-05-07T12:35:26;4.15;;;2.30;;
73382;SDS011;61600;48.126;11.542;2023-05-07T12:37:56;3.15;;;2.03;;
73382;SDS011;61600;48.126;11.542;2023-05-07T12:40:34;3.67;;;1.90;;
73382;SDS011;61600;48.126;11.542;2023-05-07T12:43:02;4.70;;;2.00;;
73382;SDS011;61600;48.126;11.542;2023-05-07T12:45:27;3.67;;;2.47;;
73382;SDS011;61600;48.126;11.542;2023-05-07T12:47:53;3.03;;;1.90;;
73382;SDS011;61600;48.126;11.542;2023-05-07T12:50:19;2.33;;;1.60;;
73382;SDS011;61600;48.126;11.542;2023-05-07T12:52:49;3.65;;;2.10;;
73382;SDS011;61600;48.126;11.542;2023-05-07T12:55:15;4.88;;;2.30;;
73382;SDS011;61600;48.126;11.542;2023-05-07T12:57:42;5.97;;;2.30;;
73382;SDS011;61600;48.126;11.542;2023-05-07T13:00:11;5.63;;;2.70;;
73382;SDS011;61600;48.126;11.542;2023-05-07T13:02:38;4.82;;;1.70;;
73382;SDS011;61600;48.126;11.542;2023-05-07T13:05:06;3.47;;;2.15;;
73382;SDS011;61600;48.126;11.542;2023-05-07T13:07:32;3.47;;;1.70;;
73382;SDS011;61600;48.126;11.542;2023-05-07T13:09:58;2.75;;;1.80;;
73382;SDS011;61600;48.126;11.542;2023-05-07T13:12:24;5.32;;;1.60;;
73382;SDS011;61600;48.126;11.542;2023-05-07T13:14:50;2.88;;;1.70;;
73382;SDS011;61600;48.126;11.542;2023-05-07T13:17:15;3.97;;;1.60;;
73382;SDS011;61600;48.126;11.542;2023-05-07T13:19:41;3.40;;;1.75;;
73382;SDS011;61600;48.126;11.542;2023-05-07T13:22:07;2.92;;;1.67;;
73382;SDS011;61600;48.126;11.542;2023-05-07T13:24:33;3.97;;;2.03;;
73382;SDS011;61600;48.126;11.542;2023-05-07T13:26:59;2.42;;;1.73;;
73382;SDS011;61600;48.126;11.542;2023-05-07T13:29:24;3.33;;;1.98;;
73382;SDS011;61600;48.126;11.542;2023-05-07T13:31:54;2.88;;;1.70;;
73382;SDS011;61600;48.126;11.542;2023-05-07T13:34:24;2.03;;;1.40;;
73382;SDS011;61600;48.126;11.542;2023-05-07T13:36:50;3.38;;;1.70;;
73382;SDS011;61600;48.126;11.542;2023-05-07T13:39:16;3.38;;;1.40;;
73382;SDS011;61600;48.126;11.542;2023-05-07T13:41:42;3.55;;;1.40;;
73382;SDS011;61600;48.126;11.542;2023-05-07T13:44:07;3.40;;;1.40;;
73382;SDS011;61600;48.126;11.542;2023-05-07T13:46:33;2.03;;;1.30;;
73382;SDS011;61600;48.126;11.542;2023-05-07T13:49:04;2.83;;;1.13;;
73382;SDS011;61600;48.126;11.542;2023-05-07T13:53:56;3.35;;;1.33;;
73382;SDS011;61600;48.126;11.542;2023-05-07T13:56:23;1.75;;;1.20;;
73382;SDS011;61600;48.126;11.542;2023-05-07T14:01:15;2.90;;;1.40;;
73382;SDS011;61600;48.126;11.542;2023-05-07T14:06:06;4.65;;;1.40;;
73382;SDS011;61600;48.126;11.542;2023-05-07T14:10:58;2.15;;;1.40;;
73382;SDS011;61600;48.126;11.542;2023-05-07T14:13:25;3.05;;;1.58;;
73382;SDS011;61600;48.126;11.542;2023-05-07T14:15:52;3.13;;;1.50;;
73382;SDS011;61600;48.126;11.542;2023-05-07T14:20:43;2.63;;;1.75;;
73382;SDS011;61600;48.126;11.542;2023-05-07T14:23:11;2.75;;;1.50;;
73382;SDS011;61600;48.126;11.542;2023-05-07T14:28:03;2.38;;;1.65;;
73382;SDS011;61600;48.126;11.542;2023-05-07T14:32:54;3.92;;;1.60;;
73382;SDS011;61600;48.126;11.542;2023-05-07T14:35:20;2.38;;;1.83;;
73382;SDS011;61600;48.126;11.542;2023-05-07T14:37:46;9.50;;;4.82;;
73382;SDS011;61600;48.126;11.542;2023-05-07T14:40:12;4.93;;;2.10;;
73382;SDS011;61600;48.126;11.542;2023-05-07T14:42:37;4.60;;;1.90;;
73382;SDS011;61600;48.126;11.542;2023-05-07T14:45:03;5.40;;;2.00;;
73382;SDS011;61600;48.126;11.542;2023-05-07T14:47:30;2.53;;;1.60;;
73382;SDS011;61600;48.126;11.542;2023-05-07T14:49:55;3.55;;;2.17;;
73382;SDS011;61600;48.126;11.542;2023-05-07T14:52:22;3.80;;;2.00;;
73382;SDS011;61600;48.126;11.542;2023-05-07T14:54:48;3.92;;;1.73;;
73382;SDS011;61600;48.126;11.542;2023-05-07T14:57:14;6.55;;;2.42;;
73382;SDS011;61600;48.126;11.542;2023-05-07T14:59:41;2.75;;;1.88;;
73382;SDS011;61600;48.126;11.542;2023-05-07T15:02:08;4.65;;;2.38;;
73382;SDS011;61600;48.126;11.542;2023-05-07T15:04:35;4.68;;;1.60;;
73382;SDS011;61600;48.126;11.542;2023-05-07T15:07:01;4.47;;;2.38;;
73382;SDS011;61600;48.126;11.542;2023-05-07T15:09:27;4.00;;;2.30;;
73382;SDS011;61600;48.126;11.542;2023-05-07T15:11:52;3.40;;;2.33;;
73382;SDS011;61600;48.126;11.542;2023-05-07T15:14:18;3.75;;;2.30;;
73382;SDS011;61600;48.126;11.542;2023-05-07T15:16:44;6.90;;;2.47;;